Предлагаем Вашему вниманию английскую версию страницы: AUTOTAF.ME 36003 - aviation weather forecast Pavlodar

AUTOTAF 36003 - авиапрогноз Павлодар

Сегодня рассвет 00:59 UTC, восход солнца 01:33 UTC,
местный полдень 06:35 UTC, заход солнца 11:37 UTC,
наступление темноты 12:12 UTC.

Краткий прогноз 36003 на 9 часов

AUTOTAF.ME 36003 241400Z 2415/2424 20003MPS CAVOK      
  BECMG 2422/2424 18006G12MPS

Детальный прогноз 36003 на 24 часа

AUTOTAF.ME 36003 241400Z 2415/2515 20003MPS 9999 SKC TX04/2515Z TNM03/2418Z    
  FM250000 18006G12MPS 9999 OVC096  
  FM250600 20012G17MPS 2000 SN BKN016 
  FM250900 22011G16MPS 1500 SN BR OVC003 
  FM251200 21009G16MPS 9999 -RA OVC008 
  FM251500 22007G14MPS 9999 OVC014

Подробный табличный прогноз

Время (UTC) miniAUTOTAF на 3 ч WX FZLVL
M AGL
ICE TURB Т
(°С)
Тd
(°С)
f(%) QNH
(гПа)
WIND/T
12 26003MPS 9999 BKN033 SFC MOD FL50/FL60 MOD SFC/FL50 -2 -12 44 1030 ...
15 20003MPS 9999 SKC SFC MOD FL30/FL40 -2 -12 46 1031 ...
18 17004MPS 9999 OVC179 SFC MOD FL30/FL40 -3 -13 47 1031 ...
21 18005G10MPS 9999 OVC134 SFC MOD FL150/FL160 MOD FL30/FL40 -2 -11 48 1029 ...
25.10.2020
00 18006G12MPS 9999 OVC096 SFC FBL FL110/FL170 -1 -9 52 1027 ...
03 18008G14MPS 9999 OVC078 240 MOD FL90/FL100 2 -10 43 1025 ...
06 20012G17MPS 2000 SN BKN016 SN 130 MOD FL120/FL150 MOD SFC/FL20 2 -4 65 1023 ...
09 22011G16MPS 1500 SN BR OVC003 SN BR 150 FBL FL20/FL170 2 1 94 1021 ...
12 21009G16MPS 9999 -RA OVC008 -RA 420 FBL FL20/FL150 MOD SFC/FL20 3 0 79 1021 ...
15 22007G14MPS 9999 OVC014 1350 MOD FL90/FL120 MOD SFC/FL20 4 1 78 1020 ...
18 23006G14MPS 9999 OVC015 1350 MOD FL70/FL190 MOD SFC/FL20 5 -0 69 1020 ...
21 23006G13MPS 9999 OVC014 1350 MOD FL190/FL200 MOD SFC/FL20 6 1 72 1019 ...
26.10.2020
00 23006G13MPS 9999 BKN014 1650 MOD FL70/FL120 MOD SFC/FL20 6 2 74 1018 ...
03 21006G13MPS 9999 -RA OVC014 -RA 1500 FBL FL70/FL190 MOD SFC/FL20 7 1 62 1016 ...
06 22010G16MPS 9999 OVC027 1650 FBL FL70/FL190 MOD SFC/FL30 10 1 51 1015 ...
09 20004MPS 9999 -RA OVC020 -RA 1800 FBL FL70/FL190 MOD SFC/FL30 9 4 68 1013 ...


Широта 52.1°, долгота 77.1°, высота 125 м абс.
Средняя высота рельефа местности 117 м абс.
Прогнозы обновляются четыре раза в сутки: в 02, 08, 14, 20 ч всемирного времени.


Выбрать прогноз по другой модели Павлодар
Онлайн-сводка гроз по Павлодар (для РФ и ближнего зарубежья)
Карта фактических гроз в окрестностях Павлодар
Динамические прогностические карты (ventusky.com)
Прогностическая карта высоты нижней границы облаков по Павлодар (windy.com)
Выбрать другой город

Прогноз предназначен для личного научно-познавательного использования частными лицами
и не предназначен для принятия важных решений и выполнения реальных полётов воздушных судов

При копировании или ином использовании любых материалов данного сайта ссылка на © meteocenter.asia обязательна.

1.03/1.6